Time;durP1;ratioP1;P1;durP2;ratioP2;P2;SDS_P1;SDS_P2;PMS_P1;PMS_P2;Temp;Humidity;BMP_temperature;BMP_pressure;BME280_temperature;BME280_humidity;BME280_pressure;Samples;Min_cycle;Max_cycle;Signal;HPM_P1;HPM_P2
2022/01/22 00:00:00;;;;;;;20.80;11.73;;;;;;;2.18;86.80;103190.72;10501556;28;20184;-76
2022/01/22 00:05:00;;;;;;;21.55;13.80;;;;;;;2.13;86.84;103190.88;10483198;28;20040;-76
2022/01/22 00:10:06;;;;;;;25.35;12.80;;;;;;;2.13;86.71;103194.41;10501895;28;20920;-76
2022/01/22 00:15:09;;;;;;;28.98;13.05;;;;;;;2.13;87.00;103185.72;10501093;28;20369;-77
2022/01/22 00:20:10;;;;;;;23.40;11.88;;;;;;;2.15;86.70;103186.81;10500033;28;20028;-77
2022/01/22 00:25:14;;;;;;;18.53;13.23;;;;;;;2.16;87.23;103192.19;10482194;28;20027;-76
2022/01/22 00:30:17;;;;;;;33.35;15.15;;;;;;;2.19;87.19;103196.78;10501462;28;20032;-77
2022/01/22 00:35:18;;;;;;;23.77;15.02;;;;;;;2.16;87.80;103189.59;10499725;28;20031;-76
2022/01/22 00:40:19;;;;;;;24.25;15.27;;;;;;;2.12;88.56;103189.03;10499297;28;20048;-76
2022/01/22 00:45:23;;;;;;;26.50;18.08;;;;;;;2.07;89.21;103185.91;10499750;28;20055;-76
2022/01/22 00:50:24;;;;;;;27.63;17.75;;;;;;;2.10;89.67;103190.50;10482947;28;20396;-77
2022/01/22 00:55:24;;;;;;;33.67;20.08;;;;;;;2.15;89.69;103184.22;10498718;28;20039;-77
2022/01/22 01:00:25;;;;;;;43.30;20.98;;;;;;;2.16;89.68;103192.19;10499656;28;20025;-76
2022/01/22 01:05:27;;;;;;;36.25;20.17;;;;;;;2.17;89.60;103190.50;10496261;28;20464;-76
2022/01/22 01:10:28;;;;;;;37.22;22.15;;;;;;;2.20;89.66;103183.13;10498139;28;20037;-77
2022/01/22 01:15:57;;;;;;;43.10;21.80;;;;;;;2.19;89.75;103187.38;10464049;28;20119;-77
2022/01/22 01:37:00;;;;;;;34.67;21.80;;;;;;;2.19;89.20;103177.03;10496536;28;20024;-79
2022/01/22 01:42:15;;;;;;;36.70;22.50;;;;;;;2.19;89.05;103178.69;10456146;28;20063;-77
2022/01/22 01:47:17;;;;;;;40.33;21.55;;;;;;;2.24;89.23;103174.09;10493493;28;20033;-78
2022/01/22 01:52:26;;;;;;;28.90;19.00;;;;;;;2.26;88.85;103173.50;10496131;28;20047;-78
2022/01/22 01:57:38;;;;;;;32.10;20.45;;;;;;;2.31;88.41;103172.41;10493073;28;20020;-78
2022/01/22 02:02:40;;;;;;;31.20;21.67;;;;;;;2.30;88.51;103174.81;10475608;28;20387;-78
2022/01/22 02:07:42;;;;;;;35.75;22.05;;;;;;;2.28;88.20;103166.88;10478838;28;20043;-78
2022/01/22 02:23:37;;;;;;;34.78;21.48;;;;;;;2.38;88.17;103183.44;10452824;28;20048;-78
2022/01/22 02:28:37;;;;;;;37.53;20.98;;;;;;;2.41;88.22;103184.75;10477087;28;20079;-78
2022/01/22 02:34:37;;;;;;;29.15;19.52;;;;;;;2.49;87.91;103172.72;10495513;28;20029;-79
2022/01/22 02:44:09;;;;;;;32.20;17.67;;;;;;;2.49;88.04;103167.53;10517341;28;20387;-78
2022/01/22 02:49:10;;;;;;;36.58;19.75;;;;;;;2.48;88.29;103171.81;10484102;28;20412;-78
2022/01/22 02:54:11;;;;;;;33.45;19.27;;;;;;;2.48;88.46;103176.97;10514319;28;20115;-78
2022/01/22 02:59:11;;;;;;;41.50;21.33;;;;;;;2.48;88.08;103176.97;10494366;28;20114;-78
2022/01/22 03:04:11;;;;;;;43.28;23.20;;;;;;;2.45;88.61;103178.25;10497191;28;20464;-78
2022/01/22 03:09:14;;;;;;;34.42;21.05;;;;;;;2.40;89.13;103169.97;10490233;28;20043;-79
2022/01/22 03:30:02;;;;;;;42.20;23.15;;;;;;;2.39;89.94;103170.72;10479247;28;20491;-78
2022/01/22 03:35:24;;;;;;;45.45;30.50;;;;;;;2.39;89.86;103175.91;10491976;28;20032;-78
2022/01/22 03:40:29;;;;;;;40.53;24.92;;;;;;;2.41;90.20;103178.66;10522788;28;20037;-78
2022/01/22 03:45:29;;;;;;;45.45;27.50;;;;;;;2.39;90.76;103183.66;10509972;28;20088;-78
2022/01/22 03:50:30;;;;;;;47.33;29.25;;;;;;;2.41;90.53;103179.59;10465311;28;20074;-78
2022/01/22 04:00:37;;;;;;;48.67;28.45;;;;;;;2.40;90.97;103184.56;10492618;28;20598;-79
2022/01/22 04:05:49;;;;;;;43.33;27.98;;;;;;;2.38;91.03;103191.22;10464931;28;20062;-79
2022/01/22 04:10:50;;;;;;;50.80;29.38;;;;;;;2.32;91.43;103194.00;10481444;28;20028;-79
2022/01/22 04:15:50;;;;;;;49.90;30.58;;;;;;;2.33;91.64;103194.16;10493294;28;20503;-78
2022/01/22 04:31:16;;;;;;;59.97;33.17;;;;;;;2.26;91.90;103185.53;10498480;28;20529;-77
2022/01/22 04:36:17;;;;;;;59.55;33.45;;;;;;;2.24;92.38;103177.56;10488247;28;20021;-79
2022/01/22 04:41:17;;;;;;;58.92;35.63;;;;;;;2.24;92.61;103177.56;10485543;28;20094;-78
2022/01/22 04:56:38;;;;;;;69.07;41.38;;;;;;;2.30;92.78;103188.63;10484670;28;20064;-78
2022/01/22 05:01:38;;;;;;;73.22;40.88;;;;;;;2.33;92.99;103186.41;10468410;28;20029;-77
2022/01/22 05:06:38;;;;;;;67.95;40.15;;;;;;;2.34;93.05;103188.25;10497367;28;20075;-78
2022/01/22 05:11:39;;;;;;;72.82;43.05;;;;;;;2.38;93.31;103178.28;10473695;28;20083;-78
2022/01/22 05:16:40;;;;;;;70.82;45.40;;;;;;;2.40;93.20;103176.81;10460453;28;20025;-80
2022/01/22 05:21:41;;;;;;;70.25;43.05;;;;;;;2.42;92.87;103180.50;10480905;28;20125;-79
2022/01/22 05:37:02;;;;;;;65.45;44.03;;;;;;;2.42;93.09;103188.25;10488970;28;20132;-79
2022/01/22 05:42:04;;;;;;;74.68;46.97;;;;;;;2.43;93.35;103182.34;10499690;28;20036;-79
2022/01/22 05:47:06;;;;;;;97.13;53.42;;;;;;;2.45;93.36;103191.19;10498740;28;20036;-78
2022/01/22 05:52:11;;;;;;;83.82;49.58;;;;;;;2.48;93.51;103199.31;10513792;28;20085;-78
2022/01/22 06:02:32;;;;;;;83.45;51.17;;;;;;;2.45;93.60;103197.31;10497880;28;20024;-79
2022/01/22 06:07:32;;;;;;;94.80;53.53;;;;;;;2.47;93.78;103193.22;10509247;28;20551;-77
2022/01/22 06:17:45;;;;;;;107.90;56.15;;;;;;;2.48;93.98;103192.50;10488362;28;20545;-80
2022/01/22 06:22:46;;;;;;;106.82;72.80;;;;;;;2.48;93.88;103192.50;10478637;28;20052;-78
2022/01/22 06:27:46;;;;;;;95.20;56.95;;;;;;;2.47;93.95;103200.03;10502127;28;20039;-79
2022/01/22 06:32:47;;;;;;;86.68;51.97;;;;;;;2.51;93.76;103196.19;10499791;28;20020;-77
2022/01/22 06:37:51;;;;;;;98.82;54.50;;;;;;;2.44;93.58;103200.63;10490314;28;20426;-77
2022/01/22 06:42:51;;;;;;;93.78;51.53;;;;;;;2.46;93.65;103205.97;10489264;28;20086;-77
2022/01/22 06:47:52;;;;;;;87.55;53.47;;;;;;;2.47;93.66;103211.31;10498916;28;20056;-77
2022/01/22 06:52:57;;;;;;;95.13;55.85;;;;;;;2.51;94.11;103209.09;10456051;28;20124;-78
2022/01/22 06:57:57;;;;;;;86.88;51.45;;;;;;;2.56;94.19;103218.31;10466943;28;20032;-78
2022/01/22 07:02:58;;;;;;;95.72;52.72;;;;;;;2.55;94.09;103224.25;10474272;28;20025;-77
2022/01/22 07:07:58;;;;;;;96.93;53.08;;;;;;;2.57;93.96;103231.41;10486641;28;20058;-77
2022/01/22 07:12:59;;;;;;;92.28;55.65;;;;;;;2.60;94.10;103224.03;10480258;28;20361;-77
2022/01/22 07:18:01;;;;;;;91.32;54.47;;;;;;;2.61;93.89;103236.22;10472659;28;20481;-78
2022/01/22 07:23:04;;;;;;;94.53;53.08;;;;;;;2.59;93.91;103244.53;10493365;28;20495;-77
2022/01/22 07:28:05;;;;;;;94.68;55.95;;;;;;;2.62;94.03;103255.25;10476082;28;20051;-77
2022/01/22 07:33:05;;;;;;;83.85;51.85;;;;;;;2.60;93.79;103272.25;10473121;28;20078;-78
2022/01/22 07:38:06;;;;;;;93.05;52.53;;;;;;;2.61;94.02;103266.31;10502649;28;20532;-78
2022/01/22 07:43:07;;;;;;;92.18;54.17;;;;;;;2.63;94.11;103263.16;10475457;28;20033;-77
2022/01/22 07:48:07;;;;;;;90.05;50.08;;;;;;;2.66;93.84;103262.63;10505830;28;20036;-77
2022/01/22 07:53:08;;;;;;;106.30;58.58;;;;;;;2.66;93.68;103272.03;10496745;28;20033;-78
2022/01/22 07:58:10;;;;;;;95.93;54.55;;;;;;;2.67;93.83;103276.47;10460883;28;20375;-77
2022/01/22 08:03:10;;;;;;;89.45;55.50;;;;;;;2.65;94.08;103268.53;10462281;28;20087;-78
2022/01/22 08:08:11;;;;;;;97.10;55.65;;;;;;;2.69;93.71;103262.03;10478690;28;20123;-77
2022/01/22 08:13:11;;;;;;;99.68;56.25;;;;;;;2.71;93.88;103266.69;10500621;28;20495;-78
2022/01/22 08:18:12;;;;;;;103.50;58.40;;;;;;;2.73;94.10;103261.66;10499603;28;20035;-78
2022/01/22 08:23:13;;;;;;;93.80;55.00;;;;;;;2.78;93.58;103258.91;10501063;28;20032;-78
2022/01/22 08:35:52;;;;;;;96.03;57.63;;;;;;;2.87;93.65;103268.47;10466471;28;20111;-78
2022/01/22 08:38:53;;;;;;;92.75;53.67;;;;;;;2.99;93.80;103276.75;10476037;28;20377;-77
2022/01/22 08:43:58;;;;;;;93.20;54.63;;;;;;;3.02;93.92;103282.28;10485118;28;20041;-78
2022/01/22 08:48:58;;;;;;;88.95;49.65;;;;;;;3.10;94.19;103278.91;10459680;28;20404;-77
2022/01/22 08:54:00;;;;;;;86.88;51.47;;;;;;;3.16;93.73;103282.22;10474954;28;20071;-78
2022/01/22 08:59:01;;;;;;;82.10;50.55;;;;;;;3.13;93.51;103276.69;10481058;28;20029;-78
2022/01/22 09:04:01;;;;;;;91.68;49.08;;;;;;;3.18;93.26;103277.25;10483613;28;20115;-77
2022/01/22 09:09:10;;;;;;;82.03;49.90;;;;;;;3.24;93.87;103285.72;10484140;28;20040;-77
2022/01/22 09:14:13;;;;;;;85.72;48.13;;;;;;;3.26;93.32;103281.63;10468277;28;20044;-77
2022/01/22 09:19:13;;;;;;;97.28;52.20;;;;;;;3.32;93.25;103284.94;10464708;28;20025;-77
2022/01/22 09:24:15;;;;;;;84.45;51.10;;;;;;;3.37;93.23;103291.56;10458362;28;20127;-77
2022/01/22 09:29:16;;;;;;;79.30;47.67;;;;;;;3.42;92.90;103304.13;10478905;28;20039;-77
2022/01/22 09:34:16;;;;;;;74.82;45.25;;;;;;;3.42;93.14;103291.19;10478025;28;20068;-78
2022/01/22 09:39:17;;;;;;;91.00;46.72;;;;;;;3.45;93.17;103300.22;10476406;28;20033;-77
2022/01/22 09:44:17;;;;;;;78.07;51.03;;;;;;;3.48;93.20;103316.09;10469473;28;20082;-78
2022/01/22 09:49:18;;;;;;;78.22;52.72;;;;;;;3.55;92.67;103320.34;10490838;28;20076;-77
2022/01/22 09:54:18;;;;;;;93.07;49.50;;;;;;;3.65;92.95;103315.47;10478835;28;20468;-73
2022/01/22 09:59:22;;;;;;;91.10;51.05;;;;;;;3.77;93.35;103318.53;10528355;28;20073;-74
2022/01/22 10:04:37;;;;;;;77.45;43.58;;;;;;;3.87;92.23;103319.59;10495294;28;20090;-75
2022/01/22 10:09:59;;;;;;;71.95;43.00;;;;;;;3.97;92.62;103320.81;10469303;28;20079;-78
2022/01/22 10:15:09;;;;;;;72.18;38.65;;;;;;;4.09;92.14;103316.09;10466313;28;20045;-78
2022/01/22 10:20:24;;;;;;;60.35;36.22;;;;;;;4.19;91.32;103314.53;10455164;28;20029;-78
2022/01/22 10:25:34;;;;;;;59.53;37.35;;;;;;;4.28;91.54;103318.19;10455864;28;20033;-78
2022/01/22 10:30:36;;;;;;;53.47;36.03;;;;;;;4.29;91.01;103309.66;10456086;28;20116;-78
2022/01/22 10:35:37;;;;;;;57.63;35.30;;;;;;;4.36;91.08;103314.78;10438119;28;20028;-78
2022/01/22 10:40:42;;;;;;;54.47;31.13;;;;;;;4.46;90.58;103314.16;10455009;28;20404;-78
2022/01/22 10:46:12;;;;;;;62.28;37.78;;;;;;;4.46;89.78;103315.81;10438022;28;20032;-78
2022/01/22 10:51:14;;;;;;;47.90;30.65;;;;;;;4.54;89.84;103314.97;10453864;28;20029;-78
2022/01/22 10:56:22;;;;;;;63.70;33.95;;;;;;;4.57;89.70;103315.31;10454085;28;20029;-78
2022/01/22 11:01:29;;;;;;;47.55;31.10;;;;;;;4.65;89.66;103311.91;10437380;28;20100;-78
2022/01/22 11:06:33;;;;;;;52.83;30.33;;;;;;;4.64;89.00;103310.06;10454600;28;20075;-78
2022/01/22 11:11:39;;;;;;;55.65;29.65;;;;;;;4.69;89.26;103308.91;10451805;28;20119;-78
2022/01/22 11:16:40;;;;;;;51.42;30.83;;;;;;;4.72;89.53;103321.31;10453582;28;20041;-78
2022/01/22 11:21:44;;;;;;;52.90;30.02;;;;;;;4.65;88.88;103317.09;10453962;28;20045;-78
2022/01/22 11:26:50;;;;;;;55.58;33.35;;;;;;;4.60;89.49;103314.75;10453684;28;20468;-78
2022/01/22 11:31:50;;;;;;;45.88;32.88;;;;;;;4.63;89.32;103316.00;10453682;28;20025;-78
2022/01/22 11:37:19;;;;;;;55.05;29.88;;;;;;;4.66;89.44;103300.78;10461798;28;20480;-78
2022/01/22 11:42:21;;;;;;;48.90;33.22;;;;;;;4.68;89.09;103300.97;10491854;28;20037;-78
2022/01/22 11:47:22;;;;;;;36.65;27.50;;;;;;;4.68;88.54;103304.47;10494389;28;20557;-78
2022/01/22 11:52:25;;;;;;;36.92;24.77;;;;;;;4.68;89.48;103294.09;10523173;28;20115;-78
2022/01/22 11:57:28;;;;;;;52.70;32.40;;;;;;;4.70;89.18;103292.59;10494530;28;20494;-78
2022/01/22 12:02:28;;;;;;;52.85;32.72;;;;;;;4.74;88.81;103300.72;10492911;28;20047;-78
2022/01/22 12:07:35;;;;;;;61.13;35.90;;;;;;;4.72;88.85;103287.59;10492352;28;20166;-78
2022/01/22 12:18:06;;;;;;;46.53;29.20;;;;;;;4.77;88.52;103299.38;10493317;28;20037;-78
2022/01/22 12:23:13;;;;;;;46.50;29.38;;;;;;;4.77;88.61;103290.66;10499709;28;20447;-78
2022/01/22 12:28:14;;;;;;;51.95;31.92;;;;;;;4.76;89.17;103283.63;10483746;28;20143;-78
2022/01/22 12:33:27;;;;;;;51.05;31.05;;;;;;;4.74;89.35;103291.28;10483966;28;20120;-78
2022/01/22 12:38:51;;;;;;;52.05;32.40;;;;;;;4.78;89.26;103284.72;10500307;28;20024;-78
2022/01/22 12:44:14;;;;;;;62.95;30.73;;;;;;;4.84;88.86;103281.16;10501223;28;20033;-78
2022/01/22 12:49:14;;;;;;;52.70;34.15;;;;;;;4.94;89.44;103288.25;10501026;28;20040;-78
2022/01/22 12:54:24;;;;;;;42.88;27.25;;;;;;;5.04;88.70;103274.63;10499513;28;20456;-78
2022/01/22 12:59:25;;;;;;;45.53;27.42;;;;;;;4.99;88.34;103280.97;10467243;28;20361;-78
2022/01/22 13:04:25;;;;;;;42.20;26.65;;;;;;;5.04;87.57;103273.69;10500202;28;20052;-78
2022/01/22 13:09:46;;;;;;;45.58;28.50;;;;;;;4.93;87.87;103283.81;10500703;28;20062;-78
2022/01/22 13:14:46;;;;;;;47.78;28.17;;;;;;;4.92;88.08;103276.78;10500123;28;20450;-78
2022/01/22 13:19:47;;;;;;;45.28;28.20;;;;;;;4.94;87.65;103283.06;10498389;28;20078;-78
2022/01/22 13:24:48;;;;;;;41.47;26.83;;;;;;;4.96;86.85;103273.78;10498035;28;20147;-78
2022/01/22 13:29:54;;;;;;;47.20;29.70;;;;;;;4.92;87.31;103283.66;10499696;28;20361;-78
2022/01/22 13:40:43;;;;;;;43.53;26.58;;;;;;;4.80;88.23;103286.75;10499554;28;20055;-78
2022/01/22 13:50:54;;;;;;;52.30;28.33;;;;;;;4.75;88.00;103287.91;10494872;28;20396;-78
2022/01/22 13:56:07;;;;;;;52.90;31.45;;;;;;;4.70;88.38;103300.38;10480460;28;20043;-78
2022/01/22 14:01:49;;;;;;;49.90;25.15;;;;;;;4.67;88.88;103300.03;10512310;28;20039;-78
2022/01/22 14:06:49;;;;;;;53.70;31.00;;;;;;;4.61;88.58;103291.56;10538692;28;20086;-78
2022/01/22 14:12:04;;;;;;;55.08;30.35;;;;;;;4.53;89.61;103285.56;10536714;28;20322;-78
2022/01/22 14:17:10;;;;;;;52.30;31.77;;;;;;;4.50;89.11;103293.00;10538981;28;20028;-77
2022/01/22 14:22:10;;;;;;;53.47;31.15;;;;;;;4.50;89.86;103284.28;10485214;28;20032;-77
2022/01/22 14:27:21;;;;;;;52.75;35.00;;;;;;;4.40;90.01;103272.88;10511257;28;20023;-77
2022/01/22 14:32:21;;;;;;;54.65;30.58;;;;;;;4.37;90.15;103294.97;10493578;28;20035;-77
2022/01/22 14:37:27;;;;;;;53.92;31.13;;;;;;;4.38;89.78;103294.22;10491733;28;20551;-77
2022/01/22 14:48:06;;;;;;;57.30;32.38;;;;;;;4.37;90.06;103289.78;10492025;28;20028;-78
2022/01/22 14:53:07;;;;;;;;;;;;;;;4.35;89.71;103292.19;10488929;28;20051;-78
2022/01/22 14:58:08;;;;;;;50.35;32.03;;;;;;;4.28;89.81;103286.16;10502599;28;20400;-78
2022/01/22 15:03:08;;;;;;;55.40;31.55;;;;;;;4.18;89.66;103291.97;10493137;28;20033;-78
2022/01/22 15:08:09;;;;;;;58.15;31.23;;;;;;;4.21;89.76;103301.03;10494704;28;20113;-78
2022/01/22 15:13:09;;;;;;;56.30;30.65;;;;;;;4.16;89.91;103290.88;10494250;28;20040;-78
2022/01/22 15:18:26;;;;;;;47.85;30.30;;;;;;;4.10;89.25;103288.53;10496263;28;20041;-78
2022/01/22 15:23:26;;;;;;;47.70;24.90;;;;;;;4.08;89.47;103297.78;10479477;28;20044;-78
2022/01/22 15:28:32;;;;;;;47.65;27.45;;;;;;;4.04;88.90;103280.06;10494951;28;20064;-78
2022/01/22 15:33:52;;;;;;;50.28;29.70;;;;;;;4.02;89.07;103284.16;10493742;28;20033;-78
2022/01/22 15:38:52;;;;;;;46.58;26.88;;;;;;;4.01;89.35;103285.78;10485883;28;20044;-77
2022/01/22 15:43:53;;;;;;;53.15;28.83;;;;;;;4.00;88.41;103291.72;10452627;28;20095;-77
2022/01/22 15:48:53;;;;;;;51.60;29.13;;;;;;;3.99;89.02;103294.16;10452119;28;20033;-78
2022/01/22 15:53:54;;;;;;;43.83;26.15;;;;;;;3.95;89.20;103292.88;10453109;28;20433;-77
2022/01/22 15:58:54;;;;;;;53.30;28.58;;;;;;;3.92;88.57;103295.13;10459365;28;20063;-77
2022/01/22 16:03:57;;;;;;;50.13;29.17;;;;;;;3.88;88.95;103300.69;10459597;28;20128;-77
2022/01/22 16:08:57;;;;;;;50.03;26.85;;;;;;;3.88;88.47;103309.41;10443591;28;20029;-77
2022/01/22 16:13:58;;;;;;;51.30;27.17;;;;;;;3.91;88.99;103302.00;10497970;28;20105;-77
2022/01/22 16:19:00;;;;;;;42.08;26.42;;;;;;;3.89;88.00;103307.72;10495061;28;20033;-76
2022/01/22 16:24:02;;;;;;;48.15;26.42;;;;;;;3.89;88.33;103315.50;10471041;28;20028;-76
2022/01/22 16:29:14;;;;;;;54.95;29.35;;;;;;;3.87;88.08;103317.94;10464854;28;20044;-77
2022/01/22 16:34:15;;;;;;;53.45;31.73;;;;;;;3.91;88.14;103319.19;10489404;28;20588;-77
2022/01/22 16:39:16;;;;;;;56.10;26.25;;;;;;;3.86;87.96;103323.88;10496406;28;20120;-77
2022/01/22 16:44:33;;;;;;;51.08;30.85;;;;;;;3.86;88.10;103325.50;10486272;28;20076;-76
2022/01/22 16:55:01;;;;;;;62.78;40.25;;;;;;;3.82;87.61;103327.75;10501471;28;20116;-76
2022/01/22 17:00:06;;;;;;;61.30;30.02;;;;;;;3.82;87.89;103338.13;10473637;28;20033;-76
2022/01/22 17:05:11;;;;;;;53.20;27.98;;;;;;;3.81;87.34;103340.53;10498354;28;20029;-76
2022/01/22 17:10:21;;;;;;;47.67;29.83;;;;;;;3.81;87.16;103344.03;10481171;28;20036;-76
2022/01/22 17:15:22;;;;;;;49.25;28.42;;;;;;;3.79;87.18;103342.03;10497767;28;20039;-76
2022/01/22 17:20:28;;;;;;;51.42;26.20;;;;;;;3.79;87.21;103352.41;10501934;28;20046;-77
2022/01/22 17:25:29;;;;;;;49.35;28.15;;;;;;;3.73;86.62;103343.91;10463307;28;20099;-78
2022/01/22 17:30:30;;;;;;;43.35;25.60;;;;;;;3.75;87.27;103353.69;10495440;28;21746;-78
2022/01/22 17:35:32;;;;;;;40.80;24.83;;;;;;;3.72;86.63;103363.72;10506654;28;20022;-78
2022/01/22 17:40:33;;;;;;;;;;;;;;;3.69;86.85;103360.75;10476386;28;20782;-78
2022/01/22 17:45:34;;;;;;;37.53;24.35;;;;;;;3.71;86.67;103363.53;10474125;28;20036;-78
2022/01/22 17:50:37;;;;;;;40.47;24.05;;;;;;;3.70;86.71;103365.19;10484915;28;20064;-79
2022/01/22 17:55:37;;;;;;;56.10;29.98;;;;;;;3.67;86.54;103367.44;10491678;28;20063;-77
2022/01/22 18:00:38;;;;;;;37.50;24.30;;;;;;;3.68;87.42;103364.09;10478702;28;20459;-78
2022/01/22 18:05:42;;;;;;;50.75;31.58;;;;;;;3.64;87.07;103359.31;10487056;28;20025;-78
2022/01/22 18:10:50;;;;;;;43.83;24.17;;;;;;;3.63;86.33;103352.28;10492573;28;20024;-78
2022/01/22 18:15:52;;;;;;;48.10;27.83;;;;;;;3.59;87.30;103363.97;10495180;28;20032;-79
2022/01/22 18:20:52;;;;;;;44.08;25.15;;;;;;;3.61;86.96;103375.44;10490882;28;20488;-78
2022/01/22 18:25:54;;;;;;;39.78;24.80;;;;;;;3.56;87.08;103376.56;10498893;28;20079;-78
2022/01/22 18:30:55;;;;;;;37.78;22.80;;;;;;;3.57;87.39;103377.47;10478798;28;20033;-79
2022/01/22 18:35:56;;;;;;;44.75;27.83;;;;;;;3.52;87.07;103376.94;10478876;28;20115;-79
2022/01/22 18:41:01;;;;;;;44.97;26.77;;;;;;;3.52;87.13;103380.44;10451490;28;20063;-79
2022/01/22 18:46:02;;;;;;;47.25;29.30;;;;;;;3.50;87.66;103378.44;10493250;28;20044;-78
2022/01/22 18:51:06;;;;;;;48.67;27.05;;;;;;;3.50;87.56;103387.13;10478997;28;20468;-79
2022/01/22 18:56:06;;;;;;;41.67;26.05;;;;;;;3.52;87.14;103376.94;10478102;28;20021;-77
2022/01/22 19:01:08;;;;;;;39.63;24.42;;;;;;;3.52;87.57;103364.91;10496944;28;20421;-78
2022/01/22 19:06:10;;;;;;;45.92;25.38;;;;;;;3.48;87.63;103375.66;10494174;28;20480;-79
2022/01/22 19:11:10;;;;;;;42.05;25.70;;;;;;;3.48;87.44;103364.38;10489066;28;20040;-79
2022/01/22 19:16:11;;;;;;;40.55;26.92;;;;;;;3.44;87.63;103369.94;10493926;28;20122;-78
2022/01/22 19:21:18;;;;;;;42.42;23.77;;;;;;;3.39;87.89;103372.00;10489873;28;20025;-81
2022/01/22 19:26:42;;;;;;;42.47;24.08;;;;;;;3.41;88.51;103359.25;10475843;28;20084;-81
2022/01/22 19:31:43;;;;;;;48.65;25.25;;;;;;;3.42;87.41;103350.72;10495096;28;20452;-80
2022/01/22 19:36:43;;;;;;;42.65;24.08;;;;;;;3.38;87.79;103358.13;10484912;28;20024;-79
2022/01/22 19:41:46;;;;;;;39.17;25.08;;;;;;;3.37;87.65;103351.13;10483621;28;20440;-79
2022/01/22 19:46:48;;;;;;;44.90;26.45;;;;;;;3.43;87.34;103362.94;10501431;28;20822;-77
2022/01/22 19:51:49;;;;;;;;;;;;;;;3.44;87.33;103364.78;10500478;28;20028;-77
2022/01/22 19:56:49;;;;;;;45.38;27.52;;;;;;;3.38;87.33;103365.91;10500160;28;20007;-79
2022/01/22 20:01:50;;;;;;;50.33;28.52;;;;;;;3.36;87.88;103363.88;10498904;28;20031;-79
2022/01/22 20:06:51;;;;;;;54.88;30.63;;;;;;;3.36;87.38;103371.63;10502389;28;20060;-79
2022/01/22 20:11:51;;;;;;;49.83;31.80;;;;;;;3.31;87.97;103365.94;10502172;28;20519;-79
2022/01/22 20:16:52;;;;;;;51.88;30.70;;;;;;;3.35;87.60;103364.59;10500640;28;20119;-79
2022/01/22 20:21:52;;;;;;;63.97;32.80;;;;;;;3.41;87.78;103359.25;10500901;28;20074;-78
2022/01/22 20:26:53;;;;;;;56.67;34.38;;;;;;;3.34;88.04;103355.00;10500541;28;20131;-79
2022/01/22 20:31:53;;;;;;;61.63;33.75;;;;;;;3.31;87.86;103365.94;10501882;28;20032;-79
2022/01/22 20:36:54;;;;;;;57.05;32.72;;;;;;;3.26;88.55;103360.94;10482431;28;20032;-79
2022/01/22 20:41:54;;;;;;;56.22;34.55;;;;;;;3.22;88.37;103372.63;10482068;28;20131;-79
2022/01/22 20:46:59;;;;;;;64.93;36.15;;;;;;;3.24;88.75;103371.13;10500045;28;20071;-78
2022/01/22 20:52:00;;;;;;;65.88;37.83;;;;;;;3.24;88.69;103363.38;10497232;28;20036;-79
2022/01/22 20:57:04;;;;;;;57.40;35.03;;;;;;;3.23;88.59;103364.09;10467951;28;20046;-78
2022/01/22 21:02:06;;;;;;;55.70;33.10;;;;;;;3.21;88.83;103361.31;10541993;28;20411;-78
2022/01/22 21:07:06;;;;;;;63.92;35.67;;;;;;;3.17;89.06;103361.72;10525637;28;20078;-78
2022/01/22 21:12:07;;;;;;;57.03;34.65;;;;;;;3.19;88.72;103367.06;10500661;28;20109;-78
2022/01/22 21:17:07;;;;;;;57.80;33.28;;;;;;;3.17;89.04;103360.78;10499514;28;20044;-78
2022/01/22 21:22:08;;;;;;;54.60;35.22;;;;;;;3.19;89.27;103362.81;10499660;28;20115;-78
2022/01/22 21:27:08;;;;;;;51.17;32.10;;;;;;;3.20;88.46;103355.97;10482376;28;20426;-78
2022/01/22 21:32:09;;;;;;;64.13;33.97;;;;;;;3.19;89.02;103361.91;10498109;28;20055;-78
2022/01/22 21:37:22;;;;;;;56.60;36.95;;;;;;;3.13;88.94;103356.91;10496692;28;20466;-78
2022/01/22 21:42:26;;;;;;;55.80;33.38;;;;;;;3.15;89.31;103345.06;10499583;28;20048;-78
2022/01/22 21:47:27;;;;;;;67.20;36.47;;;;;;;3.12;89.32;103359.34;10480122;28;20045;-78
2022/01/22 21:52:28;;;;;;;65.28;38.72;;;;;;;3.10;89.50;103364.31;10479512;28;20032;-78
2022/01/22 21:57:28;;;;;;;61.92;36.13;;;;;;;3.05;89.42;103366.38;10497562;28;20028;-79
2022/01/22 22:02:29;;;;;;;65.65;35.83;;;;;;;3.04;89.46;103368.75;10463456;28;20052;-78
2022/01/22 22:07:29;;;;;;;61.80;37.42;;;;;;;3.05;89.82;103375.78;10496570;28;20071;-78
2022/01/22 22:12:30;;;;;;;61.88;39.58;;;;;;;3.04;89.71;103368.75;10479889;28;20117;-78
2022/01/22 22:17:30;;;;;;;72.82;38.90;;;;;;;3.03;89.72;103373.03;10496624;28;20111;-79
2022/01/22 22:22:31;;;;;;;61.67;38.80;;;;;;;3.05;90.19;103371.56;10497694;28;20056;-78
2022/01/22 22:27:31;;;;;;;63.72;37.65;;;;;;;3.08;89.80;103366.75;10478585;28;20043;-78
2022/01/22 22:32:35;;;;;;;57.25;39.60;;;;;;;3.07;89.61;103372.66;10496266;28;20464;-78
2022/01/22 22:37:35;;;;;;;79.07;38.28;;;;;;;3.01;90.20;103361.56;10496226;28;20476;-78
2022/01/22 22:42:49;;;;;;;60.78;40.10;;;;;;;3.04;90.33;103355.81;10496127;28;20103;-78
2022/01/22 22:47:49;;;;;;;69.75;38.88;;;;;;;3.05;89.85;103365.44;10495571;28;20029;-78
2022/01/22 22:52:50;;;;;;;63.03;37.33;;;;;;;3.01;89.83;103356.41;10495242;28;20031;-78
2022/01/22 22:57:50;;;;;;;70.72;43.88;;;;;;;3.01;89.88;103358.06;10496276;28;20436;-78
2022/01/22 23:02:52;;;;;;;63.90;36.63;;;;;;;3.00;90.01;103358.78;10494916;28;20075;-78
2022/01/22 23:07:52;;;;;;;71.55;42.47;;;;;;;3.01;90.04;103351.22;10493735;28;20419;-79
2022/01/22 23:12:53;;;;;;;64.60;38.55;;;;;;;3.01;90.51;103376.16;10495178;28;20071;-78
2022/01/22 23:28:34;;;;;;;;;;;;;;;3.01;90.43;103383.91;10496546;28;20072;-78
2022/01/22 23:33:52;;;;;;;61.08;39.65;;;;;;;2.98;89.68;103386.16;10495114;28;20358;-79
2022/01/22 23:54:51;;;;;;;75.38;43.08;;;;;;;2.93;90.31;103383.03;10521765;28;20058;-80
